sensor_id;sensor_type;location;lat;lon;timestamp;pressure;altitude;pressure_sealevel;temperature;humidity
64713;BME280;51140;45.340;5.980;2024-03-02T00:02:13;97441.16;;;3.82;100.00
64713;BME280;51140;45.340;5.980;2024-03-02T00:04:44;97450.78;;;3.93;100.00
64713;BME280;51140;45.340;5.980;2024-03-02T00:07:09;97454.63;;;3.58;100.00
64713;BME280;51140;45.340;5.980;2024-03-02T00:09:35;97449.25;;;3.64;100.00
64713;BME280;51140;45.340;5.980;2024-03-02T00:12:02;97449.91;;;4.04;100.00
64713;BME280;51140;45.340;5.980;2024-03-02T00:14:29;97445.75;;;4.09;100.00
64713;BME280;51140;45.340;5.980;2024-03-02T00:16:55;97453.72;;;3.80;100.00
64713;BME280;51140;45.340;5.980;2024-03-02T00:19:21;97458.34;;;4.07;100.00
64713;BME280;51140;45.340;5.980;2024-03-02T00:21:47;97449.25;;;4.14;100.00
64713;BME280;51140;45.340;5.980;2024-03-02T00:24:21;97441.16;;;3.82;100.00
64713;BME280;51140;45.340;5.980;2024-03-02T00:26:49;97439.09;;;3.84;100.00
64713;BME280;51140;45.340;5.980;2024-03-02T00:29:16;97443.78;;;3.82;100.00
64713;BME280;51140;45.340;5.980;2024-03-02T00:31:42;97441.16;;;3.82;100.00
64713;BME280;51140;45.340;5.980;2024-03-02T00:34:07;97448.38;;;4.09;100.00
64713;BME280;51140;45.340;5.980;2024-03-02T00:36:33;97437.66;;;3.93;100.00
64713;BME280;51140;45.340;5.980;2024-03-02T00:38:59;97432.78;;;3.85;100.00
64713;BME280;51140;45.340;5.980;2024-03-02T00:41:31;97428.13;;;3.71;100.00
64713;BME280;51140;45.340;5.980;2024-03-02T00:44:04;97420.94;;;3.66;100.00
64713;BME280;51140;45.340;5.980;2024-03-02T00:46:35;97422.19;;;3.64;100.00
64713;BME280;51140;45.340;5.980;2024-03-02T00:49:05;97416.69;;;3.48;100.00
64713;BME280;51140;45.340;5.980;2024-03-02T00:51:32;97424.09;;;3.52;100.00
64713;BME280;51140;45.340;5.980;2024-03-02T00:54:03;97425.03;;;3.45;100.00
64713;BME280;51140;45.340;5.980;2024-03-02T00:56:30;97429.34;;;3.52;100.00
64713;BME280;51140;45.340;5.980;2024-03-02T00:58:55;97429.00;;;3.76;100.00
64713;BME280;51140;45.340;5.980;2024-03-02T01:01:21;97429.69;;;3.72;100.00
64713;BME280;51140;45.340;5.980;2024-03-02T01:03:47;97430.94;;;3.69;100.00
64713;BME280;51140;45.340;5.980;2024-03-02T01:06:14;97425.56;;;3.76;100.00
64713;BME280;51140;45.340;5.980;2024-03-02T01:08:40;97417.75;;;3.81;100.00
64713;BME280;51140;45.340;5.980;2024-03-02T01:11:05;97400.13;;;3.76;100.00
64713;BME280;51140;45.340;5.980;2024-03-02T01:13:31;97411.34;;;4.43;100.00
64713;BME280;51140;45.340;5.980;2024-03-02T01:15:57;97415.22;;;4.19;100.00
64713;BME280;51140;45.340;5.980;2024-03-02T01:18:23;97432.25;;;3.83;100.00
64713;BME280;51140;45.340;5.980;2024-03-02T01:20:49;97439.78;;;3.80;100.00
64713;BME280;51140;45.340;5.980;2024-03-02T01:23:19;97438.16;;;3.45;100.00
64713;BME280;51140;45.340;5.980;2024-03-02T01:25:45;97448.97;;;2.93;100.00
64713;BME280;51140;45.340;5.980;2024-03-02T01:28:11;97440.66;;;2.84;100.00
64713;BME280;51140;45.340;5.980;2024-03-02T01:30:36;97441.84;;;3.16;100.00
64713;BME280;51140;45.340;5.980;2024-03-02T01:33:02;97435.13;;;3.09;100.00
64713;BME280;51140;45.340;5.980;2024-03-02T01:35:27;97445.41;;;3.55;100.00
64713;BME280;51140;45.340;5.980;2024-03-02T01:37:53;97443.91;;;3.59;100.00
64713;BME280;51140;45.340;5.980;2024-03-02T01:40:19;97451.94;;;3.69;100.00
64713;BME280;51140;45.340;5.980;2024-03-02T01:42:45;97445.34;;;3.50;100.00
64713;BME280;51140;45.340;5.980;2024-03-02T01:45:11;97449.28;;;3.36;100.00
64713;BME280;51140;45.340;5.980;2024-03-02T01:47:36;97441.88;;;3.33;100.00
64713;BME280;51140;45.340;5.980;2024-03-02T01:50:01;97454.59;;;3.41;100.00
64713;BME280;51140;45.340;5.980;2024-03-02T01:52:27;97439.59;;;3.36;100.00
64713;BME280;51140;45.340;5.980;2024-03-02T01:54:53;97435.50;;;3.29;100.00
64713;BME280;51140;45.340;5.980;2024-03-02T01:57:19;97430.44;;;3.39;100.00
64713;BME280;51140;45.340;5.980;2024-03-02T01:59:45;97432.78;;;3.24;100.00
64713;BME280;51140;45.340;5.980;2024-03-02T02:02:11;97437.13;;;3.46;100.00
64713;BME280;51140;45.340;5.980;2024-03-02T02:04:36;97440.16;;;3.55;100.00
64713;BME280;51140;45.340;5.980;2024-03-02T02:07:02;97432.13;;;3.45;100.00
64713;BME280;51140;45.340;5.980;2024-03-02T02:09:27;97431.03;;;3.74;100.00
64713;BME280;51140;45.340;5.980;2024-03-02T02:11:52;97433.56;;;3.53;100.00
64713;BME280;51140;45.340;5.980;2024-03-02T02:14:18;97420.88;;;3.33;100.00
64713;BME280;51140;45.340;5.980;2024-03-02T02:16:43;97418.91;;;3.40;100.00
64713;BME280;51140;45.340;5.980;2024-03-02T02:19:09;97420.44;;;3.53;100.00
64713;BME280;51140;45.340;5.980;2024-03-02T02:21:34;97414.91;;;3.82;100.00
64713;BME280;51140;45.340;5.980;2024-03-02T02:24:00;97397.31;;;3.83;100.00
64713;BME280;51140;45.340;5.980;2024-03-02T02:26:28;97384.28;;;3.88;100.00
64713;BME280;51140;45.340;5.980;2024-03-02T02:28:53;97395.66;;;3.93;100.00
64713;BME280;51140;45.340;5.980;2024-03-02T02:31:18;97404.41;;;3.99;100.00
64713;BME280;51140;45.340;5.980;2024-03-02T02:33:44;97391.09;;;3.56;100.00
64713;BME280;51140;45.340;5.980;2024-03-02T02:36:09;97386.19;;;3.14;100.00
64713;BME280;51140;45.340;5.980;2024-03-02T02:38:40;97382.13;;;3.07;100.00
64713;BME280;51140;45.340;5.980;2024-03-02T02:41:09;97384.75;;;3.07;100.00
64713;BME280;51140;45.340;5.980;2024-03-02T02:43:34;97377.97;;;3.39;100.00
64713;BME280;51140;45.340;5.980;2024-03-02T02:45:59;97373.22;;;3.08;100.00
64713;BME280;51140;45.340;5.980;2024-03-02T02:48:25;97373.06;;;3.14;100.00
64713;BME280;51140;45.340;5.980;2024-03-02T02:50:50;97379.00;;;3.55;100.00
64713;BME280;51140;45.340;5.980;2024-03-02T02:53:16;97379.88;;;3.60;100.00
64713;BME280;51140;45.340;5.980;2024-03-02T02:55:41;97380.22;;;3.47;100.00
64713;BME280;51140;45.340;5.980;2024-03-02T02:58:09;97376.56;;;3.48;100.00
64713;BME280;51140;45.340;5.980;2024-03-02T03:00:34;97383.78;;;3.58;100.00
64713;BME280;51140;45.340;5.980;2024-03-02T03:02:59;97372.88;;;3.66;100.00
64713;BME280;51140;45.340;5.980;2024-03-02T03:05:25;97364.16;;;3.93;100.00
64713;BME280;51140;45.340;5.980;2024-03-02T03:07:50;97353.63;;;4.10;100.00
64713;BME280;51140;45.340;5.980;2024-03-02T03:10:16;97345.63;;;4.22;100.00
64713;BME280;51140;45.340;5.980;2024-03-02T03:12:42;97347.97;;;4.40;100.00
64713;BME280;51140;45.340;5.980;2024-03-02T03:15:09;97356.25;;;4.32;100.00
64713;BME280;51140;45.340;5.980;2024-03-02T03:17:35;97359.16;;;4.30;100.00
64713;BME280;51140;45.340;5.980;2024-03-02T03:20:01;97370.31;;;4.21;100.00
64713;BME280;51140;45.340;5.980;2024-03-02T03:22:26;97361.03;;;4.35;100.00
64713;BME280;51140;45.340;5.980;2024-03-02T03:24:52;97370.47;;;4.31;100.00
64713;BME280;51140;45.340;5.980;2024-03-02T03:27:18;97365.88;;;4.04;100.00
64713;BME280;51140;45.340;5.980;2024-03-02T03:29:44;97367.31;;;3.95;100.00
64713;BME280;51140;45.340;5.980;2024-03-02T03:32:10;97375.09;;;3.40;100.00
64713;BME280;51140;45.340;5.980;2024-03-02T03:34:35;97370.66;;;3.58;100.00
64713;BME280;51140;45.340;5.980;2024-03-02T03:37:01;97363.19;;;3.99;100.00
64713;BME280;51140;45.340;5.980;2024-03-02T03:39:27;97358.19;;;4.20;100.00
64713;BME280;51140;45.340;5.980;2024-03-02T03:41:53;97359.72;;;4.16;100.00
64713;BME280;51140;45.340;5.980;2024-03-02T03:44:19;97364.50;;;4.19;100.00
64713;BME280;51140;45.340;5.980;2024-03-02T03:46:44;97363.44;;;3.65;100.00
64713;BME280;51140;45.340;5.980;2024-03-02T03:49:09;97369.72;;;3.47;100.00
64713;BME280;51140;45.340;5.980;2024-03-02T03:51:35;97382.09;;;3.52;100.00
64713;BME280;51140;45.340;5.980;2024-03-02T03:54:00;97375.50;;;3.49;100.00
64713;BME280;51140;45.340;5.980;2024-03-02T03:56:26;97372.34;;;3.47;100.00
64713;BME280;51140;45.340;5.980;2024-03-02T03:58:51;97365.25;;;3.47;100.00
64713;BME280;51140;45.340;5.980;2024-03-02T04:01:17;97367.97;;;3.86;100.00
64713;BME280;51140;45.340;5.980;2024-03-02T04:03:43;97363.53;;;3.53;100.00
64713;BME280;51140;45.340;5.980;2024-03-02T04:06:08;97356.25;;;3.27;100.00
64713;BME280;51140;45.340;5.980;2024-03-02T04:08:34;97351.16;;;3.37;100.00
64713;BME280;51140;45.340;5.980;2024-03-02T04:10:59;97342.75;;;3.68;100.00
64713;BME280;51140;45.340;5.980;2024-03-02T04:13:25;97353.72;;;3.98;100.00
64713;BME280;51140;45.340;5.980;2024-03-02T04:15:50;97338.88;;;4.09;100.00
64713;BME280;51140;45.340;5.980;2024-03-02T04:18:15;97348.88;;;3.90;100.00
64713;BME280;51140;45.340;5.980;2024-03-02T04:20:41;97361.59;;;3.98;100.00
64713;BME280;51140;45.340;5.980;2024-03-02T04:23:07;97349.03;;;3.84;100.00
64713;BME280;51140;45.340;5.980;2024-03-02T04:25:33;97342.81;;;3.40;100.00
64713;BME280;51140;45.340;5.980;2024-03-02T04:27:58;97332.50;;;3.50;100.00
64713;BME280;51140;45.340;5.980;2024-03-02T04:30:23;97336.47;;;3.69;100.00
64713;BME280;51140;45.340;5.980;2024-03-02T04:32:50;97320.56;;;3.76;100.00
64713;BME280;51140;45.340;5.980;2024-03-02T04:35:15;97324.41;;;4.07;100.00
64713;BME280;51140;45.340;5.980;2024-03-02T04:37:41;97332.69;;;4.37;100.00
64713;BME280;51140;45.340;5.980;2024-03-02T04:40:06;97329.53;;;3.96;100.00
64713;BME280;51140;45.340;5.980;2024-03-02T04:42:35;97337.75;;;3.67;100.00
64713;BME280;51140;45.340;5.980;2024-03-02T04:45:01;97322.47;;;3.80;100.00
64713;BME280;51140;45.340;5.980;2024-03-02T04:47:27;97316.53;;;4.07;100.00
64713;BME280;51140;45.340;5.980;2024-03-02T04:49:53;97318.88;;;4.25;100.00
64713;BME280;51140;45.340;5.980;2024-03-02T04:52:18;97336.94;;;3.83;100.00
64713;BME280;51140;45.340;5.980;2024-03-02T04:54:44;97340.63;;;3.65;100.00
64713;BME280;51140;45.340;5.980;2024-03-02T04:57:28;97340.19;;;3.40;100.00
64713;BME280;51140;45.340;5.980;2024-03-02T04:59:53;97331.56;;;3.56;100.00
64713;BME280;51140;45.340;5.980;2024-03-02T05:02:18;97329.75;;;3.95;100.00
64713;BME280;51140;45.340;5.980;2024-03-02T05:04:44;97327.91;;;4.12;100.00
64713;BME280;51140;45.340;5.980;2024-03-02T05:07:09;97337.50;;;4.23;100.00
64713;BME280;51140;45.340;5.980;2024-03-02T05:09:35;97345.75;;;4.32;100.00
64713;BME280;51140;45.340;5.980;2024-03-02T05:12:00;97351.56;;;4.55;100.00
64713;BME280;51140;45.340;5.980;2024-03-02T05:14:45;97352.25;;;4.46;100.00
64713;BME280;51140;45.340;5.980;2024-03-02T05:17:11;97353.22;;;4.40;100.00
64713;BME280;51140;45.340;5.980;2024-03-02T05:19:36;97362.69;;;4.41;100.00
64713;BME280;51140;45.340;5.980;2024-03-02T05:22:02;97362.06;;;4.34;100.00
64713;BME280;51140;45.340;5.980;2024-03-02T05:24:28;97369.94;;;4.34;100.00
64713;BME280;51140;45.340;5.980;2024-03-02T05:26:53;97363.81;;;3.90;100.00
64713;BME280;51140;45.340;5.980;2024-03-02T05:29:19;97370.66;;;3.58;100.00
64713;BME280;51140;45.340;5.980;2024-03-02T05:31:44;97365.50;;;3.63;100.00
64713;BME280;51140;45.340;5.980;2024-03-02T05:34:10;97355.56;;;3.81;100.00
64713;BME280;51140;45.340;5.980;2024-03-02T05:36:35;97360.22;;;4.13;100.00
64713;BME280;51140;45.340;5.980;2024-03-02T05:39:01;97351.53;;;4.12;100.00
64713;BME280;51140;45.340;5.980;2024-03-02T05:41:29;97358.03;;;3.71;100.00
64713;BME280;51140;45.340;5.980;2024-03-02T05:43:55;97349.28;;;3.66;100.00
64713;BME280;51140;45.340;5.980;2024-03-02T05:46:20;97345.00;;;3.76;100.00
64713;BME280;51140;45.340;5.980;2024-03-02T05:48:45;97338.69;;;3.77;100.00
64713;BME280;51140;45.340;5.980;2024-03-02T05:51:11;97336.69;;;4.01;100.00
64713;BME280;51140;45.340;5.980;2024-03-02T05:53:36;97331.41;;;4.39;100.00
64713;BME280;51140;45.340;5.980;2024-03-02T05:56:04;97319.84;;;4.19;100.00
64713;BME280;51140;45.340;5.980;2024-03-02T05:58:29;97312.66;;;4.31;100.00
64713;BME280;51140;45.340;5.980;2024-03-02T06:01:11;97315.69;;;4.23;100.00
64713;BME280;51140;45.340;5.980;2024-03-02T06:03:37;97311.78;;;4.47;100.00
64713;BME280;51140;45.340;5.980;2024-03-02T06:06:02;97297.50;;;4.38;100.00
64713;BME280;51140;45.340;5.980;2024-03-02T06:08:27;97291.63;;;4.31;100.00
64713;BME280;51140;45.340;5.980;2024-03-02T06:10:53;97287.66;;;4.28;100.00
64713;BME280;51140;45.340;5.980;2024-03-02T06:13:18;97279.03;;;4.33;100.00
64713;BME280;51140;45.340;5.980;2024-03-02T06:15:44;97280.06;;;4.32;100.00
64713;BME280;51140;45.340;5.980;2024-03-02T06:18:09;97272.91;;;4.49;100.00
64713;BME280;51140;45.340;5.980;2024-03-02T06:20:34;97278.88;;;4.66;100.00
64713;BME280;51140;45.340;5.980;2024-03-02T06:23:00;97273.84;;;4.38;100.00
64713;BME280;51140;45.340;5.980;2024-03-02T06:25:25;97272.31;;;4.42;100.00
64713;BME280;51140;45.340;5.980;2024-03-02T06:27:51;97277.50;;;4.58;100.00
64713;BME280;51140;45.340;5.980;2024-03-02T06:30:16;97284.63;;;4.63;100.00
64713;BME280;51140;45.340;5.980;2024-03-02T06:32:42;97277.09;;;4.23;100.00
64713;BME280;51140;45.340;5.980;2024-03-02T06:35:07;97273.00;;;4.32;100.00
64713;BME280;51140;45.340;5.980;2024-03-02T06:37:36;97268.47;;;4.49;100.00
64713;BME280;51140;45.340;5.980;2024-03-02T06:40:01;97270.66;;;4.14;100.00
64713;BME280;51140;45.340;5.980;2024-03-02T06:42:27;97269.69;;;3.98;100.00
64713;BME280;51140;45.340;5.980;2024-03-02T06:44:58;97269.75;;;4.03;100.00
64713;BME280;51140;45.340;5.980;2024-03-02T06:47:23;97269.69;;;4.20;100.00
64713;BME280;51140;45.340;5.980;2024-03-02T06:49:48;97273.91;;;3.99;100.00
64713;BME280;51140;45.340;5.980;2024-03-02T06:52:14;97273.34;;;3.97;100.00
64713;BME280;51140;45.340;5.980;2024-03-02T06:54:39;97264.13;;;3.95;100.00
64713;BME280;51140;45.340;5.980;2024-03-02T06:57:04;97266.94;;;4.32;100.00
64713;BME280;51140;45.340;5.980;2024-03-02T06:59:30;97267.56;;;4.39;100.00
64713;BME280;51140;45.340;5.980;2024-03-02T07:01:55;97277.75;;;4.35;100.00
64713;BME280;51140;45.340;5.980;2024-03-02T07:04:22;97269.19;;;4.23;100.00
64713;BME280;51140;45.340;5.980;2024-03-02T07:06:47;97261.75;;;4.15;100.00
64713;BME280;51140;45.340;5.980;2024-03-02T07:09:12;97263.63;;;3.98;100.00
64713;BME280;51140;45.340;5.980;2024-03-02T07:11:38;97260.69;;;3.94;100.00
64713;BME280;51140;45.340;5.980;2024-03-02T07:14:03;97259.13;;;3.93;100.00
64713;BME280;51140;45.340;5.980;2024-03-02T07:16:29;97246.59;;;4.00;100.00
64713;BME280;51140;45.340;5.980;2024-03-02T07:18:57;97241.97;;;4.29;100.00
64713;BME280;51140;45.340;5.980;2024-03-02T07:21:24;97242.81;;;4.35;100.00
64713;BME280;51140;45.340;5.980;2024-03-02T07:23:50;97236.13;;;4.49;100.00
64713;BME280;51140;45.340;5.980;2024-03-02T07:26:16;97236.63;;;4.46;100.00
64713;BME280;51140;45.340;5.980;2024-03-02T07:28:44;97244.53;;;4.51;100.00
64713;BME280;51140;45.340;5.980;2024-03-02T07:31:09;97232.34;;;4.40;100.00
64713;BME280;51140;45.340;5.980;2024-03-02T07:33:35;97226.41;;;4.49;100.00
64713;BME280;51140;45.340;5.980;2024-03-02T07:36:00;97230.63;;;4.50;100.00
64713;BME280;51140;45.340;5.980;2024-03-02T07:38:27;97225.63;;;4.49;100.00
64713;BME280;51140;45.340;5.980;2024-03-02T07:40:53;97223.47;;;4.46;100.00
64713;BME280;51140;45.340;5.980;2024-03-02T07:43:19;97225.16;;;4.30;100.00
64713;BME280;51140;45.340;5.980;2024-03-02T07:45:46;97224.31;;;4.51;100.00
64713;BME280;51140;45.340;5.980;2024-03-02T07:48:11;97214.13;;;4.82;100.00
64713;BME280;51140;45.340;5.980;2024-03-02T07:50:37;97208.19;;;4.96;100.00
64713;BME280;51140;45.340;5.980;2024-03-02T07:53:04;97205.50;;;4.91;100.00
64713;BME280;51140;45.340;5.980;2024-03-02T07:55:30;97210.75;;;4.91;98.89
64713;BME280;51140;45.340;5.980;2024-03-02T07:58:03;97208.53;;;5.05;99.18
64713;BME280;51140;45.340;5.980;2024-03-02T08:00:28;97198.81;;;4.74;98.63
64713;BME280;51140;45.340;5.980;2024-03-02T08:02:54;97198.06;;;4.83;99.19
64713;BME280;51140;45.340;5.980;2024-03-02T08:05:20;97196.31;;;4.94;100.00
64713;BME280;51140;45.340;5.980;2024-03-02T08:07:46;97194.81;;;5.03;100.00
64713;BME280;51140;45.340;5.980;2024-03-02T08:10:12;97190.47;;;5.18;99.45
64713;BME280;51140;45.340;5.980;2024-03-02T08:12:38;97172.47;;;5.05;100.00
64713;BME280;51140;45.340;5.980;2024-03-02T08:15:04;97174.06;;;5.06;100.00
64713;BME280;51140;45.340;5.980;2024-03-02T08:17:30;97172.56;;;5.15;100.00
64713;BME280;51140;45.340;5.980;2024-03-02T08:19:56;97169.00;;;5.37;100.00
64713;BME280;51140;45.340;5.980;2024-03-02T08:22:22;97163.53;;;5.48;98.78
64713;BME280;51140;45.340;5.980;2024-03-02T08:24:48;97169.63;;;5.54;100.00
64713;BME280;51140;45.340;5.980;2024-03-02T08:27:13;97158.06;;;5.55;100.00
64713;BME280;51140;45.340;5.980;2024-03-02T08:29:39;97155.44;;;5.55;100.00
64713;BME280;51140;45.340;5.980;2024-03-02T08:32:05;97155.75;;;5.68;99.61
64713;BME280;51140;45.340;5.980;2024-03-02T08:34:31;97160.09;;;5.90;99.81
64713;BME280;51140;45.340;5.980;2024-03-02T08:36:56;97155.63;;;5.90;96.82
64713;BME280;51140;45.340;5.980;2024-03-02T08:39:21;97157.75;;;6.03;99.11
64713;BME280;51140;45.340;5.980;2024-03-02T08:41:47;97157.00;;;6.08;98.38
64713;BME280;51140;45.340;5.980;2024-03-02T08:44:13;97152.94;;;5.85;100.00
64713;BME280;51140;45.340;5.980;2024-03-02T08:46:40;97149.16;;;5.66;100.00
64713;BME280;51140;45.340;5.980;2024-03-02T08:49:06;97144.72;;;5.71;100.00
64713;BME280;51140;45.340;5.980;2024-03-02T08:51:31;97141.06;;;5.83;100.00
64713;BME280;51140;45.340;5.980;2024-03-02T08:53:57;97127.38;;;5.81;100.00
64713;BME280;51140;45.340;5.980;2024-03-02T08:56:23;97123.91;;;5.70;100.00
64713;BME280;51140;45.340;5.980;2024-03-02T08:58:49;97119.19;;;5.72;100.00
64713;BME280;51140;45.340;5.980;2024-03-02T09:01:15;97116.31;;;5.73;100.00
64713;BME280;51140;45.340;5.980;2024-03-02T09:03:41;97114.69;;;5.72;100.00
64713;BME280;51140;45.340;5.980;2024-03-02T09:06:09;97109.25;;;5.89;99.64
64713;BME280;51140;45.340;5.980;2024-03-02T09:08:35;97106.69;;;6.04;99.64
64713;BME280;51140;45.340;5.980;2024-03-02T09:11:02;97093.78;;;6.23;99.21
64713;BME280;51140;45.340;5.980;2024-03-02T09:13:28;97091.16;;;6.48;99.00
64713;BME280;51140;45.340;5.980;2024-03-02T09:15:54;97090.91;;;6.80;96.25
64713;BME280;51140;45.340;5.980;2024-03-02T09:18:19;97084.03;;;6.94;98.34
64713;BME280;51140;45.340;5.980;2024-03-02T09:20:44;97082.44;;;7.13;92.01
64713;BME280;51140;45.340;5.980;2024-03-02T09:23:11;97074.72;;;7.32;94.07
64713;BME280;51140;45.340;5.980;2024-03-02T09:25:36;97080.22;;;7.45;86.83
64713;BME280;51140;45.340;5.980;2024-03-02T09:28:02;97066.41;;;7.64;88.52
64713;BME280;51140;45.340;5.980;2024-03-02T09:30:28;97074.63;;;8.06;86.31
64713;BME280;51140;45.340;5.980;2024-03-02T09:32:53;97071.84;;;8.31;85.14
64713;BME280;51140;45.340;5.980;2024-03-02T09:35:19;97062.03;;;8.71;83.18
64713;BME280;51140;45.340;5.980;2024-03-02T09:37:45;97059.63;;;8.74;85.17
64713;BME280;51140;45.340;5.980;2024-03-02T09:40:10;97066.56;;;8.99;83.19
64713;BME280;51140;45.340;5.980;2024-03-02T09:42:36;97057.88;;;9.17;79.72
64713;BME280;51140;45.340;5.980;2024-03-02T09:45:02;97045.47;;;9.36;75.74
64713;BME280;51140;45.340;5.980;2024-03-02T09:47:28;97055.00;;;9.37;84.60
64713;BME280;51140;45.340;5.980;2024-03-02T09:49:53;97049.72;;;9.61;86.59
64713;BME280;51140;45.340;5.980;2024-03-02T09:52:21;97047.28;;;9.64;87.89
64713;BME280;51140;45.340;5.980;2024-03-02T09:54:47;97035.31;;;9.67;81.19
64713;BME280;51140;45.340;5.980;2024-03-02T09:57:14;97035.81;;;9.88;78.84
64713;BME280;51140;45.340;5.980;2024-03-02T09:59:39;97034.69;;;9.94;78.23
64713;BME280;51140;45.340;5.980;2024-03-02T10:02:04;97040.19;;;9.97;78.06
64713;BME280;51140;45.340;5.980;2024-03-02T10:04:32;97037.00;;;9.82;76.48
64713;BME280;51140;45.340;5.980;2024-03-02T10:07:18;97026.47;;;9.95;77.55
64713;BME280;51140;45.340;5.980;2024-03-02T10:09:45;97033.41;;;9.91;72.49
64713;BME280;51140;45.340;5.980;2024-03-02T10:12:12;97012.56;;;10.22;75.16
64713;BME280;51140;45.340;5.980;2024-03-02T10:14:38;97016.22;;;10.26;73.95
64713;BME280;51140;45.340;5.980;2024-03-02T10:17:11;97013.88;;;10.24;70.92
64713;BME280;51140;45.340;5.980;2024-03-02T10:19:38;97003.81;;;10.03;73.63
64713;BME280;51140;45.340;5.980;2024-03-02T10:22:08;97015.28;;;9.98;78.99
64713;BME280;51140;45.340;5.980;2024-03-02T10:24:44;97002.47;;;9.87;76.56
64713;BME280;51140;45.340;5.980;2024-03-02T10:27:10;96992.13;;;10.04;76.67
64713;BME280;51140;45.340;5.980;2024-03-02T10:29:39;96993.34;;;9.74;79.48
64713;BME280;51140;45.340;5.980;2024-03-02T10:32:08;96984.19;;;9.85;79.40
64713;BME280;51140;45.340;5.980;2024-03-02T10:34:35;96982.31;;;9.86;83.11
64713;BME280;51140;45.340;5.980;2024-03-02T10:37:01;96977.03;;;10.04;78.59
64713;BME280;51140;45.340;5.980;2024-03-02T10:39:28;96966.31;;;10.09;73.51
64713;BME280;51140;45.340;5.980;2024-03-02T10:41:55;96946.41;;;10.12;71.35
64713;BME280;51140;45.340;5.980;2024-03-02T10:44:22;96967.34;;;9.95;79.24
64713;BME280;51140;45.340;5.980;2024-03-02T10:46:49;96967.00;;;10.01;79.20
64713;BME280;51140;45.340;5.980;2024-03-02T10:49:16;96964.03;;;10.03;74.28
64713;BME280;51140;45.340;5.980;2024-03-02T10:51:42;96937.81;;;10.20;75.41
64713;BME280;51140;45.340;5.980;2024-03-02T10:54:07;96950.66;;;10.13;73.37
64713;BME280;51140;45.340;5.980;2024-03-02T10:56:38;96960.69;;;10.16;69.71
64713;BME280;51140;45.340;5.980;2024-03-02T10:59:26;96923.81;;;10.33;72.66
64713;BME280;51140;45.340;5.980;2024-03-02T11:01:57;96930.41;;;10.36;74.88
64713;BME280;51140;45.340;5.980;2024-03-02T11:04:25;96928.84;;;10.48;72.10
64713;BME280;51140;45.340;5.980;2024-03-02T11:06:52;96946.94;;;10.60;68.84
64713;BME280;51140;45.340;5.980;2024-03-02T11:09:22;96912.53;;;10.68;73.53
64713;BME280;51140;45.340;5.980;2024-03-02T11:12:23;96950.50;;;10.82;65.67
64713;BME280;51140;45.340;5.980;2024-03-02T11:14:51;96987.38;;;10.84;62.62
64713;BME280;51140;45.340;5.980;2024-03-02T11:17:19;96956.91;;;10.95;62.22
64713;BME280;51140;45.340;5.980;2024-03-02T11:19:46;96920.78;;;11.08;63.90
64713;BME280;51140;45.340;5.980;2024-03-02T11:22:12;96856.66;;;11.14;66.29
64713;BME280;51140;45.340;5.980;2024-03-02T11:24:38;96882.53;;;11.09;66.51
64713;BME280;51140;45.340;5.980;2024-03-02T11:27:05;96921.56;;;11.35;64.19
64713;BME280;51140;45.340;5.980;2024-03-02T11:32:06;96831.66;;;11.29;67.32
64713;BME280;51140;45.340;5.980;2024-03-02T11:34:34;97016.81;;;11.28;60.17
64713;BME280;51140;45.340;5.980;2024-03-02T11:37:03;96996.34;;;11.29;59.00
64713;BME280;51140;45.340;5.980;2024-03-02T11:39:29;96957.19;;;11.21;59.56
64713;BME280;51140;45.340;5.980;2024-03-02T11:41:56;96779.44;;;11.24;65.95
64713;BME280;51140;45.340;5.980;2024-03-02T11:44:22;96878.47;;;11.25;62.48
64713;BME280;51140;45.340;5.980;2024-03-02T11:47:10;96760.19;;;11.05;66.94
64713;BME280;51140;45.340;5.980;2024-03-02T11:49:50;96750.97;;;11.03;68.29
64713;BME280;51140;45.340;5.980;2024-03-02T11:52:17;96880.25;;;11.29;62.46
64713;BME280;51140;45.340;5.980;2024-03-02T11:54:45;96905.44;;;11.32;60.62
64713;BME280;51140;45.340;5.980;2024-03-02T11:57:21;96883.94;;;11.42;60.52
64713;BME280;51140;45.340;5.980;2024-03-02T11:59:49;96869.88;;;11.41;61.57
64713;BME280;51140;45.340;5.980;2024-03-02T12:02:24;96889.63;;;11.49;60.40
64713;BME280;51140;45.340;5.980;2024-03-02T12:04:49;96868.31;;;11.63;60.35
64713;BME280;51140;45.340;5.980;2024-03-02T12:07:22;96898.97;;;11.60;59.55
64713;BME280;51140;45.340;5.980;2024-03-02T12:09:49;96877.38;;;11.62;59.21
64713;BME280;51140;45.340;5.980;2024-03-02T12:12:15;96819.69;;;11.62;60.47
64713;BME280;51140;45.340;5.980;2024-03-02T12:14:53;96750.06;;;11.52;63.58
64713;BME280;51140;45.340;5.980;2024-03-02T12:17:23;96703.44;;;11.45;66.45
64713;BME280;51140;45.340;5.980;2024-03-02T12:19:49;96930.97;;;11.41;56.77
64713;BME280;51140;45.340;5.980;2024-03-02T12:22:14;96871.22;;;11.53;58.44
64713;BME280;51140;45.340;5.980;2024-03-02T12:24:41;96717.31;;;11.65;64.35
64713;BME280;51140;45.340;5.980;2024-03-02T12:27:07;96788.59;;;11.63;61.37
64713;BME280;51140;45.340;5.980;2024-03-02T12:29:33;96731.38;;;11.65;62.66
64713;BME280;51140;45.340;5.980;2024-03-02T12:31:59;96763.66;;;11.72;61.44
64713;BME280;51140;45.340;5.980;2024-03-02T12:34:26;96748.56;;;11.81;61.99
64713;BME280;51140;45.340;5.980;2024-03-02T12:36:51;96702.34;;;12.08;64.15
64713;BME280;51140;45.340;5.980;2024-03-02T12:39:21;96700.59;;;11.95;64.46
64713;BME280;51140;45.340;5.980;2024-03-02T12:41:50;96683.06;;;11.94;65.76
64713;BME280;51140;45.340;5.980;2024-03-02T12:44:16;96771.00;;;11.97;62.07
64713;BME280;51140;45.340;5.980;2024-03-02T12:46:43;96880.31;;;12.18;57.48
64713;BME280;51140;45.340;5.980;2024-03-02T12:49:10;96822.03;;;12.08;58.32
64713;BME280;51140;45.340;5.980;2024-03-02T12:51:39;96875.16;;;12.22;56.71
64713;BME280;51140;45.340;5.980;2024-03-02T12:54:09;96844.84;;;12.31;57.48
64713;BME280;51140;45.340;5.980;2024-03-02T12:56:36;96895.13;;;12.33;55.18
64713;BME280;51140;45.340;5.980;2024-03-02T12:59:03;96789.47;;;12.42;59.24
64713;BME280;51140;45.340;5.980;2024-03-02T13:01:28;96712.19;;;12.64;61.18
64713;BME280;51140;45.340;5.980;2024-03-02T13:03:54;96948.81;;;12.66;52.53